Time;durP1;ratioP1;P1;durP2;ratioP2;P2;SDS_P1;SDS_P2;PMS_P1;PMS_P2;Temp;Humidity;BMP_temperature;BMP_pressure;BME280_temperature;BME280_humidity;BME280_pressure;Samples;Min_cycle;Max_cycle;Signal;HPM_P1;HPM_P2
2022/01/10 00:00:28;;;;;;;16.42;9.65;;;2.10;79.10;;;;;;4130033;28;20432;-87
2022/01/10 00:02:29;;;;;;;17.33;8.70;;;2.10;79.20;;;;;;4126385;28;20125;-88
2022/01/10 00:04:30;;;;;;;12.23;7.90;;;2.10;79.90;;;;;;4098317;28;20370;-88
2022/01/10 00:06:30;;;;;;;11.23;7.32;;;2.10;79.20;;;;;;4107176;28;20042;-88
2022/01/10 00:08:31;;;;;;;11.93;7.43;;;2.10;79.30;;;;;;4128546;28;20534;-89
2022/01/10 00:10:35;;;;;;;12.93;8.15;;;2.10;79.20;;;;;;4123776;28;20031;-88
2022/01/10 00:12:35;;;;;;;13.60;8.50;;;2.10;79.30;;;;;;4107231;28;20027;-88
2022/01/10 00:14:36;;;;;;;13.00;8.48;;;2.10;79.40;;;;;;4116082;28;20535;-88
2022/01/10 00:16:40;;;;;;;18.73;8.80;;;2.10;79.30;;;;;;4092015;28;20027;-88
2022/01/10 00:18:40;;;;;;;;;;;2.10;79.30;;;;;;4123143;28;20101;-88
2022/01/10 00:20:41;;;;;;;10.90;7.22;;;2.20;79.40;;;;;;4110123;28;19917;-88
2022/01/10 00:22:45;;;;;;;11.73;7.50;;;2.10;79.20;;;;;;4112650;28;20031;-88
2022/01/10 00:24:46;;;;;;;11.55;7.55;;;2.20;79.30;;;;;;4146765;28;20084;-90
2022/01/10 00:26:47;;;;;;;11.02;7.25;;;2.10;79.20;;;;;;4108176;28;20154;-88
2022/01/10 00:28:47;;;;;;;10.98;7.15;;;2.10;79.20;;;;;;4108570;28;20275;-87
2022/01/10 00:30:48;;;;;;;10.95;7.18;;;2.20;79.30;;;;;;4135475;28;20022;-88
2022/01/10 00:32:49;;;;;;;11.60;7.40;;;2.20;79.30;;;;;;4110118;28;20046;-90
2022/01/10 00:34:50;;;;;;;12.70;7.50;;;2.20;79.40;;;;;;4111641;28;20058;-88
2022/01/10 00:36:50;;;;;;;11.40;7.28;;;2.20;79.30;;;;;;4104718;28;20126;-88
2022/01/10 00:38:51;;;;;;;10.73;7.47;;;2.20;80.10;;;;;;4119087;28;20050;-88
2022/01/10 00:40:52;;;;;;;12.38;7.60;;;2.20;79.30;;;;;;4125574;28;20121;-88
2022/01/10 00:42:55;;;;;;;12.23;7.90;;;2.30;79.40;;;;;;4110825;28;20031;-88
2022/01/10 00:44:59;;;;;;;12.65;7.85;;;2.20;80.10;;;;;;4112793;28;20412;-88
2022/01/10 00:47:00;;;;;;;11.65;7.40;;;2.20;80.00;;;;;;4127436;28;20035;-88
2022/01/10 00:49:01;;;;;;;13.35;8.77;;;2.30;79.30;;;;;;4123032;28;20089;-87
2022/01/10 00:51:01;;;;;;;12.55;8.40;;;2.30;79.20;;;;;;4097785;28;20043;-88
2022/01/10 00:53:02;;;;;;;14.88;8.75;;;2.20;79.10;;;;;;4095278;28;20130;-88
2022/01/10 00:55:03;;;;;;;12.85;7.57;;;2.20;79.10;;;;;;4099738;28;20035;-87
2022/01/10 00:57:04;;;;;;;13.00;8.43;;;2.20;79.10;;;;;;4108379;28;20038;-90
2022/01/10 00:59:04;;;;;;;13.20;8.77;;;2.20;79.10;;;;;;4100514;28;20474;-89
2022/01/10 01:01:05;;;;;;;13.93;8.52;;;2.20;79.20;;;;;;4124618;28;20038;-88
2022/01/10 01:03:05;;;;;;;12.10;8.25;;;2.20;79.30;;;;;;4093547;28;20417;-88
2022/01/10 01:05:09;;;;;;;14.00;8.73;;;2.20;79.40;;;;;;4095015;28;20516;-87
2022/01/10 01:07:09;;;;;;;;;;;2.20;79.40;;;;;;4114193;28;20101;-87
2022/01/10 01:09:14;;;;;;;11.50;7.60;;;2.20;79.60;;;;;;4125812;28;19945;-89
2022/01/10 01:14:23;;;;;;;11.93;7.75;;;2.20;79.40;;;;;;4123205;28;20030;-88
2022/01/10 01:16:09;;;;;;;10.30;6.90;;;2.20;79.40;;;;;;4125307;28;20419;-89
2022/01/10 01:18:17;;;;;;;14.60;7.82;;;2.20;79.40;;;;;;4101184;28;20034;-88
2022/01/10 01:20:30;;;;;;;13.98;8.13;;;2.20;79.40;;;;;;4115349;28;20018;-88
2022/01/10 01:24:50;;;;;;;11.82;8.05;;;2.20;79.60;;;;;;4125389;28;20512;-88
2022/01/10 01:26:51;;;;;;;11.63;7.97;;;2.30;79.70;;;;;;4113147;28;20027;-88
2022/01/10 01:28:52;;;;;;;12.18;8.00;;;2.30;79.70;;;;;;4133352;28;20030;-89
2022/01/10 01:30:53;;;;;;;13.65;8.45;;;2.30;79.80;;;;;;4101058;28;20070;-88
2022/01/10 01:32:53;;;;;;;11.98;7.43;;;2.30;79.80;;;;;;4114562;28;20031;-90
2022/01/10 01:35:03;;;;;;;12.00;7.88;;;2.30;79.90;;;;;;4098899;28;20051;-89
2022/01/10 01:37:04;;;;;;;13.60;8.48;;;2.40;80.70;;;;;;4113151;28;20058;-89
2022/01/10 01:39:15;;;;;;;12.68;7.80;;;2.30;79.90;;;;;;4109658;28;20582;-90
2022/01/10 01:43:31;;;;;;;12.43;7.78;;;2.40;79.90;;;;;;4149979;28;20025;-88
2022/01/10 01:45:50;;;;;;;14.40;9.27;;;2.40;79.90;;;;;;4120847;28;20117;-89
2022/01/10 01:47:52;;;;;;;13.30;8.95;;;2.50;80.00;;;;;;4110560;28;20031;-90
2022/01/10 01:49:53;;;;;;;14.35;8.68;;;2.50;80.00;;;;;;4121130;28;20521;-89
2022/01/10 01:51:54;;;;;;;14.73;8.75;;;2.50;80.00;;;;;;4130481;28;20682;-88
2022/01/10 01:53:54;;;;;;;17.27;10.00;;;2.50;79.90;;;;;;4080378;29;20124;-88
2022/01/10 01:55:55;;;;;;;16.38;9.48;;;2.60;80.00;;;;;;4090604;28;20106;-88
2022/01/10 01:57:55;;;;;;;17.80;9.38;;;2.50;79.90;;;;;;4110346;28;20031;-88
2022/01/10 01:59:56;;;;;;;16.23;9.50;;;2.50;79.90;;;;;;4116074;28;20346;-91
2022/01/10 02:01:57;;;;;;;15.25;9.32;;;2.50;79.90;;;;;;4121186;28;20460;-88
2022/01/10 02:03:57;;;;;;;15.05;9.18;;;2.50;79.90;;;;;;4114296;28;20030;-90
2022/01/10 02:05:58;;;;;;;16.70;9.20;;;2.50;79.90;;;;;;4094111;28;20035;-88
2022/01/10 02:07:59;;;;;;;15.32;9.20;;;2.50;80.00;;;;;;4113243;28;20035;-88
2022/01/10 02:09:59;;;;;;;16.38;9.07;;;2.50;80.80;;;;;;4117901;28;20030;-89
2022/01/10 02:12:00;;;;;;;16.25;8.55;;;2.50;80.10;;;;;;4085038;29;20075;-89
2022/01/10 02:14:01;;;;;;;17.83;9.07;;;2.50;80.90;;;;;;4102628;28;20538;-88
2022/01/10 02:16:04;;;;;;;18.25;8.30;;;2.40;80.30;;;;;;4124256;28;20042;-89
2022/01/10 02:18:05;;;;;;;;;;;2.40;80.40;;;;;;4115383;28;20114;-88
2022/01/10 02:20:06;;;;;;;16.63;8.55;;;2.50;80.60;;;;;;4131197;28;19914;-88
2022/01/10 02:22:07;;;;;;;15.73;7.72;;;2.40;80.40;;;;;;4112293;28;20046;-89
2022/01/10 02:24:07;;;;;;;12.43;7.10;;;2.40;80.50;;;;;;4116112;28;20135;-89
2022/01/10 02:26:08;;;;;;;15.68;8.57;;;2.40;80.50;;;;;;4117882;28;20030;-90
2022/01/10 02:28:09;;;;;;;15.52;8.07;;;2.40;80.60;;;;;;4128775;28;20483;-88
2022/01/10 02:30:10;;;;;;;15.00;8.20;;;2.40;80.70;;;;;;4118214;28;20455;-89
2022/01/10 02:32:10;;;;;;;14.05;7.35;;;2.50;80.80;;;;;;4130701;28;20041;-88
2022/01/10 02:34:15;;;;;;;14.32;7.90;;;2.40;80.80;;;;;;4118073;28;20102;-88
2022/01/10 02:36:24;;;;;;;13.80;7.55;;;2.40;80.80;;;;;;4127686;28;20034;-88
2022/01/10 02:38:25;;;;;;;13.98;6.95;;;2.40;80.80;;;;;;4122377;28;20082;-88
2022/01/10 02:40:28;;;;;;;12.90;6.95;;;2.50;80.90;;;;;;4123583;28;20036;-88
2022/01/10 02:42:29;;;;;;;17.00;7.95;;;2.40;80.90;;;;;;4126857;28;20029;-88
2022/01/10 02:44:29;;;;;;;13.90;7.95;;;2.30;80.90;;;;;;4115807;28;20035;-89
2022/01/10 02:46:34;;;;;;;14.43;7.55;;;2.40;81.00;;;;;;4111982;28;20023;-89
2022/01/10 02:48:35;;;;;;;14.45;7.65;;;2.40;81.00;;;;;;4120948;28;20030;-89
2022/01/10 02:50:36;;;;;;;16.15;8.00;;;2.30;81.00;;;;;;4113197;28;20122;-88
2022/01/10 02:52:37;;;;;;;16.30;8.25;;;2.30;81.10;;;;;;4117653;28;20432;-88
2022/01/10 02:54:37;;;;;;;17.27;8.38;;;2.40;81.10;;;;;;4117283;28;20027;-88
2022/01/10 02:56:55;;;;;;;15.43;8.05;;;2.40;81.20;;;;;;4097609;28;20039;-88
2022/01/10 02:58:56;;;;;;;17.15;7.80;;;2.30;81.20;;;;;;4108467;28;20031;-89
2022/01/10 03:00:56;;;;;;;15.73;8.25;;;2.30;81.20;;;;;;4114631;28;20037;-88
2022/01/10 03:02:58;;;;;;;18.33;8.48;;;2.40;81.30;;;;;;4099960;28;21412;-89
2022/01/10 03:04:59;;;;;;;21.85;8.65;;;2.30;81.20;;;;;;4088275;28;20032;-88
2022/01/10 03:07:00;;;;;;;15.48;8.45;;;2.30;81.20;;;;;;4107979;28;20037;-88
2022/01/10 03:09:05;;;;;;;18.33;9.35;;;2.30;81.20;;;;;;4115128;28;20022;-88
2022/01/10 03:11:05;;;;;;;17.25;8.95;;;2.30;82.00;;;;;;4111062;28;20050;-88
2022/01/10 03:13:06;;;;;;;17.50;8.57;;;2.40;81.30;;;;;;4100753;28;20107;-88
2022/01/10 03:15:07;;;;;;;17.77;9.52;;;2.30;81.20;;;;;;4101985;28;20028;-88
2022/01/10 03:17:10;;;;;;;19.55;8.98;;;2.30;81.30;;;;;;4093669;28;20404;-89
2022/01/10 03:19:10;;;;;;;24.63;10.35;;;2.30;81.30;;;;;;4111170;28;20023;-88
2022/01/10 03:21:11;;;;;;;20.77;9.13;;;2.30;81.30;;;;;;4123807;28;20030;-89
2022/01/10 03:23:12;;;;;;;18.42;10.02;;;2.30;81.40;;;;;;4109253;28;20073;-88
2022/01/10 03:25:12;;;;;;;19.90;9.43;;;2.40;81.50;;;;;;4141173;28;20061;-91
2022/01/10 03:27:13;;;;;;;23.85;10.85;;;2.30;81.40;;;;;;4112337;28;20039;-93
2022/01/10 03:29:14;;;;;;;25.20;11.35;;;2.30;81.30;;;;;;4126608;28;20049;-89
2022/01/10 03:31:15;;;;;;;23.17;11.27;;;2.30;81.40;;;;;;4113818;28;20090;-89
2022/01/10 03:33:15;;;;;;;21.25;10.60;;;2.40;81.50;;;;;;4095378;28;20027;-89
2022/01/10 03:35:16;;;;;;;19.10;10.38;;;2.40;81.50;;;;;;4106985;28;20023;-90
2022/01/10 03:37:17;;;;;;;22.85;11.45;;;2.40;81.40;;;;;;4092272;28;20039;-89
2022/01/10 03:39:17;;;;;;;22.50;10.82;;;2.40;81.40;;;;;;4127100;28;20030;-89
2022/01/10 03:41:18;;;;;;;23.17;11.25;;;2.40;81.40;;;;;;4112900;28;20090;-90
2022/01/10 03:43:19;;;;;;;23.42;10.98;;;2.40;81.30;;;;;;4111024;28;20074;-88
2022/01/10 03:45:19;;;;;;;20.80;10.73;;;2.40;81.40;;;;;;4098084;28;20138;-89
2022/01/10 03:47:21;;;;;;;22.05;11.13;;;2.40;81.30;;;;;;4131218;28;20022;-89
2022/01/10 03:49:25;;;;;;;24.50;12.05;;;2.40;81.30;;;;;;4103517;28;20038;-89
2022/01/10 03:51:26;;;;;;;26.63;11.73;;;2.40;81.20;;;;;;4134191;28;20044;-87
2022/01/10 03:53:27;;;;;;;26.55;11.98;;;2.30;81.10;;;;;;4111508;28;20109;-88
2022/01/10 03:55:27;;;;;;;23.25;11.70;;;2.30;81.90;;;;;;4112317;28;20424;-88
2022/01/10 03:57:28;;;;;;;24.45;11.88;;;2.40;81.20;;;;;;4112245;28;20018;-89
2022/01/10 03:59:29;;;;;;;26.90;13.18;;;2.30;81.20;;;;;;4094331;28;20034;-89
2022/01/10 04:01:30;;;;;;;31.73;13.55;;;2.30;81.20;;;;;;4095798;28;20032;-88
2022/01/10 04:03:31;;;;;;;27.45;13.30;;;2.30;81.20;;;;;;4127876;28;20304;-89
2022/01/10 04:05:32;;;;;;;28.83;13.50;;;2.30;81.20;;;;;;4113674;28;20043;-88
2022/01/10 04:07:33;;;;;;;30.83;13.75;;;2.30;81.20;;;;;;4132486;28;20117;-90
2022/01/10 04:09:33;;;;;;;27.00;13.20;;;2.40;81.30;;;;;;4120178;28;20034;-89
2022/01/10 04:11:34;;;;;;;31.92;15.02;;;2.30;81.20;;;;;;4117178;28;20034;-88
2022/01/10 04:13:34;;;;;;;30.27;14.57;;;2.30;81.20;;;;;;4131827;28;20680;-87
2022/01/10 04:15:35;;;;;;;29.13;14.25;;;2.40;81.30;;;;;;4113299;28;20038;-87
2022/01/10 04:17:36;;;;;;;28.83;14.63;;;2.30;81.90;;;;;;4115921;28;20037;-88
2022/01/10 04:19:37;;;;;;;29.73;14.30;;;2.50;81.30;;;;;;4128564;28;20397;-89
2022/01/10 04:21:37;;;;;;;32.20;15.30;;;2.50;81.30;;;;;;4130453;28;20029;-89
2022/01/10 04:23:38;;;;;;;29.13;14.30;;;2.40;81.20;;;;;;4110362;28;20027;-89
2022/01/10 04:25:39;;;;;;;37.30;15.55;;;2.40;81.20;;;;;;4112799;28;20486;-89
2022/01/10 04:27:39;;;;;;;33.70;15.55;;;2.40;81.20;;;;;;4089021;29;20054;-89
2022/01/10 04:29:40;;;;;;;33.83;16.33;;;2.40;81.20;;;;;;4126011;28;20031;-90
2022/01/10 04:31:41;;;;;;;31.83;15.30;;;2.40;81.20;;;;;;4109823;28;20106;-90
2022/01/10 04:33:41;;;;;;;32.50;15.75;;;2.40;81.10;;;;;;4111952;28;20074;-89
2022/01/10 04:35:42;;;;;;;34.22;15.95;;;2.40;81.20;;;;;;4133957;28;20024;-88
2022/01/10 04:37:49;;;;;;;34.40;15.65;;;2.40;81.20;;;;;;4111827;28;20047;-89
2022/01/10 04:39:49;;;;;;;35.13;15.95;;;2.40;81.10;;;;;;4099775;28;20484;-89
2022/01/10 04:41:50;;;;;;;35.80;16.40;;;2.40;81.10;;;;;;4100869;28;20320;-89
2022/01/10 04:43:51;;;;;;;32.58;15.80;;;2.40;81.10;;;;;;4174830;23;20115;-74
2022/01/10 04:45:51;;;;;;;35.50;16.08;;;2.30;81.00;;;;;;4157600;28;20401;-74
2022/01/10 04:47:52;;;;;;;34.03;16.30;;;2.30;80.90;;;;;;4141317;28;20468;-74
2022/01/10 04:52:11;;;;;;;36.72;16.92;;;2.40;81.00;;;;;;4136417;28;20105;-75
2022/01/10 04:54:12;;;;;;;37.30;17.05;;;2.40;81.00;;;;;;4150986;28;20037;-73
2022/01/10 04:56:14;;;;;;;40.65;17.27;;;2.40;81.00;;;;;;4150157;28;20052;-73
2022/01/10 04:58:14;;;;;;;39.17;17.17;;;2.30;80.90;;;;;;4132620;28;20157;-73
2022/01/10 05:00:15;;;;;;;36.97;17.85;;;2.30;80.90;;;;;;4128538;28;20534;-74
2022/01/10 05:02:16;;;;;;;39.65;16.88;;;2.30;80.80;;;;;;4130649;28;20026;-74
2022/01/10 05:04:16;;;;;;;35.38;17.10;;;2.30;80.90;;;;;;4136503;28;20433;-74
2022/01/10 05:06:17;;;;;;;39.40;18.20;;;2.30;80.80;;;;;;4155255;28;20398;-74
2022/01/10 05:08:18;;;;;;;40.65;17.25;;;2.40;80.90;;;;;;4133589;28;20045;-74
2022/01/10 05:10:19;;;;;;;37.80;17.48;;;2.40;81.00;;;;;;4134278;28;20041;-75
2022/01/10 05:12:22;;;;;;;35.92;16.95;;;2.30;80.90;;;;;;4127768;28;20065;-74
2022/01/10 05:14:23;;;;;;;39.70;17.70;;;2.30;80.80;;;;;;4134617;28;20022;-74
2022/01/10 05:16:23;;;;;;;36.83;17.67;;;2.30;80.70;;;;;;4153228;28;20029;-75
2022/01/10 05:18:24;;;;;;;40.70;16.85;;;2.40;80.70;;;;;;4127936;28;20037;-72
2022/01/10 05:20:25;;;;;;;38.35;17.55;;;2.40;80.70;;;;;;4158482;28;20029;-72
2022/01/10 05:22:25;;;;;;;37.95;16.70;;;2.30;80.50;;;;;;4152964;28;20052;-75
2022/01/10 05:24:26;;;;;;;34.20;16.05;;;2.40;80.60;;;;;;4121142;28;20038;-75
2022/01/10 05:26:26;;;;;;;38.55;17.73;;;2.30;80.50;;;;;;4150355;28;20041;-75
2022/01/10 05:28:27;;;;;;;34.00;16.88;;;2.40;80.50;;;;;;4145269;28;20033;-75
2022/01/10 05:30:28;;;;;;;38.72;17.40;;;2.40;80.50;;;;;;4153360;28;20098;-75
2022/01/10 05:32:28;;;;;;;37.72;16.92;;;2.40;80.40;;;;;;4137624;28;20026;-75
2022/01/10 05:34:30;;;;;;;36.97;18.02;;;2.30;80.30;;;;;;4133019;28;20038;-75
2022/01/10 05:36:30;;;;;;;44.10;18.88;;;2.40;81.10;;;;;;4129001;28;20026;-75
2022/01/10 05:38:31;;;;;;;41.28;19.55;;;2.30;80.30;;;;;;4113333;28;20092;-74
2022/01/10 05:40:32;;;;;;;39.40;19.40;;;2.40;81.10;;;;;;4136930;28;20498;-75
2022/01/10 05:42:33;;;;;;;43.03;19.83;;;2.40;80.30;;;;;;4131308;28;20448;-75
2022/01/10 05:44:33;;;;;;;48.60;21.25;;;2.40;81.10;;;;;;4147306;28;20037;-74
2022/01/10 05:46:35;;;;;;;45.30;20.83;;;2.30;80.30;;;;;;4149538;28;20409;-74
2022/01/10 05:48:36;;;;;;;44.95;21.20;;;2.40;80.30;;;;;;4149471;28;20476;-74
2022/01/10 05:50:37;;;;;;;42.15;19.50;;;2.40;80.30;;;;;;4137159;28;20030;-74
2022/01/10 05:52:38;;;;;;;47.33;21.30;;;2.40;80.40;;;;;;4142348;28;20121;-74
2022/01/10 05:54:38;;;;;;;47.28;20.98;;;2.40;80.30;;;;;;4148537;28;20030;-74
2022/01/10 05:56:39;;;;;;;44.40;20.75;;;2.40;80.30;;;;;;4147924;28;20053;-74
2022/01/10 05:58:39;;;;;;;44.17;19.25;;;2.40;80.40;;;;;;4113692;28;20495;-74
2022/01/10 06:00:40;;;;;;;45.13;21.00;;;2.40;80.30;;;;;;4127867;28;20031;-74
2022/01/10 06:02:41;;;;;;;45.55;22.05;;;2.40;80.40;;;;;;4139157;28;20033;-74
2022/01/10 06:04:41;;;;;;;48.85;22.02;;;2.40;80.40;;;;;;4098647;28;20047;-74
2022/01/10 06:06:42;;;;;;;57.92;24.52;;;2.40;80.30;;;;;;4152382;28;20026;-74
2022/01/10 06:08:43;;;;;;;51.50;23.05;;;2.50;80.40;;;;;;4128516;28;20026;-74
2022/01/10 06:10:43;;;;;;;53.15;24.20;;;2.50;80.30;;;;;;4147945;28;20085;-75
2022/01/10 06:12:44;;;;;;;56.50;23.80;;;2.50;80.30;;;;;;4112906;28;20120;-74
2022/01/10 06:14:45;;;;;;;55.63;23.55;;;2.50;80.30;;;;;;4134164;28;20040;-74
2022/01/10 06:16:45;;;;;;;52.03;22.52;;;2.50;80.20;;;;;;4144849;28;20088;-74
2022/01/10 06:18:46;;;;;;;48.45;22.15;;;2.50;80.10;;;;;;4144175;28;20588;-74
2022/01/10 06:20:46;;;;;;;53.60;22.42;;;2.50;80.10;;;;;;4129373;28;20133;-75
2022/01/10 06:22:47;;;;;;;50.28;23.02;;;2.50;80.10;;;;;;4142031;28;20029;-74
2022/01/10 06:24:48;;;;;;;52.67;23.92;;;2.50;80.00;;;;;;4141593;28;20029;-74
2022/01/10 06:26:48;;;;;;;55.28;24.08;;;2.50;80.00;;;;;;4112289;28;20364;-74
2022/01/10 06:28:49;;;;;;;49.70;21.35;;;2.60;80.10;;;;;;4124681;28;20042;-74
2022/01/10 06:30:49;;;;;;;52.78;23.10;;;2.60;80.10;;;;;;4148605;28;20072;-74
2022/01/10 06:32:50;;;;;;;46.47;22.27;;;2.60;80.00;;;;;;4131760;28;20099;-74
2022/01/10 06:34:52;;;;;;;48.97;22.48;;;2.60;79.90;;;;;;4127523;28;20687;-74
2022/01/10 06:36:53;;;;;;;53.90;24.73;;;2.60;80.00;;;;;;4130711;28;20034;-74
2022/01/10 06:38:54;;;;;;;50.53;22.50;;;2.60;79.80;;;;;;4132102;28;20553;-72
2022/01/10 06:40:54;;;;;;;51.53;21.27;;;2.70;79.80;;;;;;4149802;28;20037;-71
2022/01/10 06:42:55;;;;;;;50.90;22.80;;;2.60;79.80;;;;;;4130555;28;20564;-72
2022/01/10 06:44:55;;;;;;;49.92;22.83;;;2.60;79.80;;;;;;4150092;28;20324;-72
2022/01/10 06:46:57;;;;;;;52.47;22.77;;;2.70;79.80;;;;;;4115473;28;20060;-72
2022/01/10 06:48:57;;;;;;;47.05;21.10;;;2.70;79.70;;;;;;4134924;28;20079;-71
2022/01/10 06:50:58;;;;;;;46.10;21.60;;;2.70;79.70;;;;;;4120772;28;20101;-72
2022/01/10 06:53:00;;;;;;;51.83;22.98;;;2.60;79.70;;;;;;4121140;28;20035;-72
2022/01/10 06:55:01;;;;;;;48.70;21.98;;;2.70;79.70;;;;;;4147479;28;20029;-72
2022/01/10 06:57:02;;;;;;;48.42;21.27;;;2.60;79.60;;;;;;4147311;28;20504;-72
2022/01/10 06:59:03;;;;;;;51.17;21.95;;;2.70;79.70;;;;;;4132988;28;20022;-72
2022/01/10 07:01:04;;;;;;;47.55;21.67;;;2.70;79.70;;;;;;4132440;28;20403;-72
2022/01/10 07:03:04;;;;;;;49.38;22.02;;;2.70;79.70;;;;;;4131883;28;20037;-72
2022/01/10 07:05:05;;;;;;;44.33;21.45;;;2.70;79.70;;;;;;4116566;28;20228;-72
2022/01/10 07:07:06;;;;;;;45.72;20.08;;;2.70;79.70;;;;;;4130853;28;20029;-72
2022/01/10 07:09:07;;;;;;;45.03;20.80;;;2.70;79.70;;;;;;4137785;28;20509;-72
2022/01/10 07:11:07;;;;;;;47.13;21.15;;;2.70;79.80;;;;;;4114575;28;20105;-72
2022/01/10 07:13:08;;;;;;;49.78;22.38;;;2.70;79.70;;;;;;4149446;28;20359;-72
2022/01/10 07:15:09;;;;;;;49.55;21.88;;;2.70;79.80;;;;;;4149283;28;20379;-72
2022/01/10 07:17:10;;;;;;;50.80;22.23;;;2.70;79.70;;;;;;4122023;28;20022;-72
2022/01/10 07:19:10;;;;;;;48.97;22.02;;;2.70;79.60;;;;;;4149586;28;20270;-72
2022/01/10 07:21:11;;;;;;;56.97;23.50;;;2.70;79.70;;;;;;4130837;28;20024;-72
2022/01/10 07:23:11;;;;;;;49.95;22.05;;;2.70;79.60;;;;;;4114022;28;20031;-72
2022/01/10 07:25:12;;;;;;;55.33;23.33;;;2.70;79.60;;;;;;4133684;28;20034;-72
2022/01/10 07:27:13;;;;;;;52.80;23.58;;;2.70;79.50;;;;;;4137537;28;20030;-72
2022/01/10 07:29:13;;;;;;;48.67;21.95;;;2.70;79.60;;;;;;4149943;28;21889;-72
2022/01/10 07:31:14;;;;;;;50.58;22.15;;;2.70;79.50;;;;;;4149506;28;20030;-71
2022/01/10 07:33:15;;;;;;;47.72;22.67;;;2.70;79.50;;;;;;4132558;28;20090;-72
2022/01/10 07:35:16;;;;;;;50.83;21.63;;;2.80;79.50;;;;;;4122148;28;20026;-72
2022/01/10 07:37:18;;;;;;;51.80;23.70;;;2.80;79.60;;;;;;4131841;28;20066;-72
2022/01/10 07:39:18;;;;;;;57.70;24.92;;;2.80;79.60;;;;;;4148711;28;20018;-72
2022/01/10 07:41:19;;;;;;;57.90;24.05;;;2.80;79.50;;;;;;4150806;28;20496;-72
2022/01/10 07:43:19;;;;;;;52.63;23.08;;;2.80;79.60;;;;;;4132753;28;20025;-72
2022/01/10 07:45:20;;;;;;;51.35;23.55;;;2.80;79.40;;;;;;4133890;28;20037;-72
2022/01/10 07:47:21;;;;;;;47.75;22.63;;;2.80;79.40;;;;;;4136300;28;20514;-72
2022/01/10 07:49:21;;;;;;;45.42;23.23;;;2.80;79.30;;;;;;4131953;28;20030;-72
2022/01/10 07:51:23;;;;;;;51.58;23.20;;;2.80;79.30;;;;;;4149248;28;20030;-72
2022/01/10 07:53:23;;;;;;;49.72;23.52;;;2.80;79.30;;;;;;4133275;28;20419;-72
2022/01/10 07:55:24;;;;;;;52.17;22.88;;;2.80;79.30;;;;;;4149952;28;20035;-72
2022/01/10 07:57:25;;;;;;;56.95;23.65;;;2.80;79.30;;;;;;4131126;28;20026;-72
2022/01/10 07:59:25;;;;;;;55.13;25.63;;;2.80;79.30;;;;;;4149152;28;20045;-72
2022/01/10 08:01:26;;;;;;;62.08;24.75;;;2.80;79.30;;;;;;4145757;28;20104;-72
2022/01/10 08:03:26;;;;;;;61.53;26.05;;;2.80;79.30;;;;;;4145763;28;20029;-72
2022/01/10 08:05:27;;;;;;;56.15;24.42;;;2.90;79.40;;;;;;4129489;28;20418;-72
2022/01/10 08:07:28;;;;;;;56.08;25.40;;;2.80;79.30;;;;;;4130874;28;20052;-72
2022/01/10 08:09:28;;;;;;;55.25;25.00;;;2.80;79.30;;;;;;4095119;28;20035;-72
2022/01/10 08:11:29;;;;;;;61.53;25.60;;;2.80;79.20;;;;;;4146677;28;20025;-72
2022/01/10 08:13:30;;;;;;;54.17;24.63;;;2.90;79.30;;;;;;4144495;28;20029;-72
2022/01/10 08:15:30;;;;;;;62.72;27.10;;;2.80;79.30;;;;;;4127867;28;20046;-72
2022/01/10 08:17:31;;;;;;;62.17;27.10;;;2.90;79.30;;;;;;4123527;28;20563;-72
2022/01/10 08:19:34;;;;;;;62.65;26.88;;;2.90;79.40;;;;;;4138692;28;20498;-72
2022/01/10 08:21:34;;;;;;;63.55;27.15;;;2.90;79.30;;;;;;4116736;28;20042;-72
2022/01/10 08:23:35;;;;;;;56.95;25.77;;;2.90;79.20;;;;;;4131789;28;20390;-72
2022/01/10 08:25:35;;;;;;;65.70;26.35;;;2.90;79.20;;;;;;4140367;28;20029;-72
2022/01/10 08:27:36;;;;;;;65.45;27.92;;;2.90;79.30;;;;;;4128131;28;20073;-72
2022/01/10 08:29:37;;;;;;;60.67;25.88;;;2.90;79.30;;;;;;4142018;28;20038;-72
2022/01/10 08:31:37;;;;;;;66.95;25.92;;;2.90;79.30;;;;;;4101310;28;20034;-72
2022/01/10 08:33:38;;;;;;;66.05;27.77;;;2.90;79.30;;;;;;4147646;28;20528;-72
2022/01/10 08:35:39;;;;;;;63.15;27.25;;;2.90;79.20;;;;;;4106511;28;20444;-72
2022/01/10 08:37:39;;;;;;;55.63;25.02;;;2.90;79.20;;;;;;4115372;28;20030;-72
2022/01/10 08:39:40;;;;;;;63.00;27.55;;;2.90;79.10;;;;;;4149114;28;20107;-72
2022/01/10 08:41:40;;;;;;;62.05;27.85;;;2.90;79.20;;;;;;4148812;28;20096;-72
2022/01/10 08:43:41;;;;;;;71.93;29.45;;;2.90;79.10;;;;;;4131737;28;20398;-72
2022/01/10 08:45:42;;;;;;;70.40;28.75;;;2.90;79.10;;;;;;4149054;28;20772;-73
2022/01/10 08:47:43;;;;;;;62.33;27.65;;;3.00;79.20;;;;;;4148943;28;20033;-72
2022/01/10 08:49:43;;;;;;;67.15;28.13;;;3.00;79.10;;;;;;4131813;28;20539;-72
2022/01/10 08:51:45;;;;;;;64.22;28.27;;;3.00;79.20;;;;;;4147549;28;20121;-72
2022/01/10 08:53:45;;;;;;;64.68;27.90;;;3.00;79.10;;;;;;4131343;28;20037;-72
2022/01/10 08:55:47;;;;;;;68.80;30.48;;;3.00;79.00;;;;;;4148944;28;20395;-72
2022/01/10 08:57:48;;;;;;;66.05;28.70;;;3.00;79.00;;;;;;4149227;28;20029;-72
2022/01/10 08:59:48;;;;;;;66.50;29.60;;;3.00;79.00;;;;;;4148602;28;20494;-72
2022/01/10 09:01:49;;;;;;;64.40;29.17;;;3.00;79.00;;;;;;4148234;28;20045;-72
2022/01/10 09:03:49;;;;;;;72.43;29.77;;;3.00;79.00;;;;;;4130183;28;20030;-72
2022/01/10 09:05:50;;;;;;;65.90;28.63;;;3.00;78.90;;;;;;4131738;28;20037;-72
2022/01/10 09:07:51;;;;;;;74.57;29.98;;;3.00;78.90;;;;;;4131896;28;20494;-72
2022/01/10 09:09:51;;;;;;;68.30;29.05;;;3.10;79.00;;;;;;4148043;28;20037;-72
2022/01/10 09:11:52;;;;;;;70.20;29.80;;;3.10;78.90;;;;;;4149287;28;20044;-73
2022/01/10 09:13:53;;;;;;;73.35;30.75;;;3.10;78.90;;;;;;4147543;28;20037;-72
2022/01/10 09:15:53;;;;;;;78.15;30.88;;;3.10;78.90;;;;;;4121040;28;20080;-72
2022/01/10 09:17:54;;;;;;;69.55;29.75;;;3.10;78.80;;;;;;4137979;28;20490;-72
2022/01/10 09:19:55;;;;;;;70.47;30.20;;;3.10;78.70;;;;;;4131721;28;20061;-72
2022/01/10 09:21:55;;;;;;;67.15;29.42;;;3.20;78.80;;;;;;4147966;28;20045;-72
2022/01/10 09:23:56;;;;;;;67.10;30.67;;;3.10;78.70;;;;;;4149895;28;20257;-72
2022/01/10 09:25:56;;;;;;;72.38;29.77;;;3.10;79.40;;;;;;4114923;28;20280;-72
2022/01/10 09:27:57;;;;;;;69.88;30.05;;;3.20;78.70;;;;;;4150520;28;20038;-72
2022/01/10 09:29:58;;;;;;;68.72;29.55;;;3.20;78.60;;;;;;4135140;28;20033;-72
2022/01/10 09:31:58;;;;;;;70.93;30.73;;;3.20;78.60;;;;;;4133834;28;20034;-72
2022/01/10 09:33:59;;;;;;;66.63;30.02;;;3.20;78.60;;;;;;4151311;28;20056;-72
2022/01/10 09:36:00;;;;;;;75.85;31.70;;;3.20;78.70;;;;;;4123983;28;20057;-72
2022/01/10 09:38:00;;;;;;;66.68;30.25;;;3.20;78.50;;;;;;4151537;28;20052;-72
2022/01/10 09:40:01;;;;;;;64.63;28.15;;;3.20;78.40;;;;;;4134465;28;20026;-72
2022/01/10 09:42:02;;;;;;;67.03;28.92;;;3.20;78.50;;;;;;4137218;28;20485;-72
2022/01/10 09:44:04;;;;;;;66.53;29.90;;;3.20;78.40;;;;;;4151959;28;20080;-73
2022/01/10 09:46:05;;;;;;;66.22;28.77;;;3.20;78.40;;;;;;4137963;28;20022;-72
2022/01/10 09:48:05;;;;;;;71.65;31.20;;;3.20;78.40;;;;;;4118149;28;20031;-72
2022/01/10 09:50:07;;;;;;;62.75;26.67;;;3.20;78.40;;;;;;4121039;28;20058;-72
2022/01/10 09:52:08;;;;;;;60.63;27.08;;;3.30;78.40;;;;;;4134375;28;20038;-73
2022/01/10 09:54:09;;;;;;;63.70;27.75;;;3.30;78.10;;;;;;4134080;28;20064;-72
2022/01/10 09:56:10;;;;;;;62.83;27.90;;;3.20;78.00;;;;;;4137617;28;20076;-73
2022/01/10 09:58:12;;;;;;;63.28;27.35;;;3.20;77.90;;;;;;4118814;28;20435;-73
2022/01/10 10:00:15;;;;;;;67.55;26.10;;;3.30;77.90;;;;;;4150036;28;20028;-74
2022/01/10 10:02:15;;;;;;;61.47;28.05;;;3.20;77.70;;;;;;4151588;28;20171;-72
2022/01/10 10:04:17;;;;;;;59.78;26.40;;;3.20;77.60;;;;;;4151850;28;20041;-72
2022/01/10 10:06:18;;;;;;;66.47;27.65;;;3.20;77.50;;;;;;4133483;28;20070;-72
2022/01/10 10:08:22;;;;;;;63.90;27.80;;;3.20;77.50;;;;;;4151997;28;20044;-73
2022/01/10 10:10:22;;;;;;;;;;;3.20;77.50;;;;;;4135136;28;20026;-73
2022/01/10 10:12:26;;;;;;;68.10;28.55;;;3.20;77.50;;;;;;4151573;28;20012;-72
2022/01/10 10:14:27;;;;;;;67.47;30.10;;;3.20;77.50;;;;;;4124397;28;20608;-72
2022/01/10 10:16:29;;;;;;;70.97;29.52;;;3.20;77.50;;;;;;4151434;28;20104;-72
2022/01/10 10:18:30;;;;;;;67.03;29.30;;;3.20;77.50;;;;;;4133601;28;20037;-73
2022/01/10 10:20:31;;;;;;;79.75;32.15;;;3.30;77.60;;;;;;4133997;28;20056;-72
2022/01/10 10:22:31;;;;;;;70.95;32.72;;;3.20;77.50;;;;;;4152884;28;20021;-72
2022/01/10 10:24:32;;;;;;;70.30;33.03;;;3.30;77.60;;;;;;4131813;28;20037;-72
2022/01/10 10:26:33;;;;;;;73.43;30.13;;;3.30;77.60;;;;;;4134849;28;20029;-72
2022/01/10 10:28:37;;;;;;;70.95;31.42;;;3.30;77.70;;;;;;4151153;28;20101;-73
2022/01/10 10:30:38;;;;;;;76.50;31.42;;;3.30;77.80;;;;;;4151464;28;20425;-72
2022/01/10 10:32:39;;;;;;;79.05;32.15;;;3.30;77.90;;;;;;4152141;28;20108;-72
2022/01/10 10:34:40;;;;;;;69.72;29.73;;;3.30;78.00;;;;;;4134209;28;20406;-72